sensor_id;sensor_type;location;lat;lon;timestamp;P1;durP1;ratioP1;P2;durP2;ratioP2
69392;SDS011;56582;44.624;20.378;2023-08-24T00:01:33;25.58;;;16.70;;
69392;SDS011;56582;44.624;20.378;2023-08-24T00:03:58;24.10;;;16.60;;
69392;SDS011;56582;44.624;20.378;2023-08-24T00:06:24;22.20;;;17.30;;
69392;SDS011;56582;44.624;20.378;2023-08-24T00:08:49;23.73;;;17.27;;
69392;SDS011;56582;44.624;20.378;2023-08-24T00:11:15;24.30;;;18.65;;
69392;SDS011;56582;44.624;20.378;2023-08-24T00:13:41;25.50;;;18.47;;
69392;SDS011;56582;44.624;20.378;2023-08-24T00:16:13;24.70;;;18.52;;
69392;SDS011;56582;44.624;20.378;2023-08-24T00:18:40;26.27;;;18.88;;
69392;SDS011;56582;44.624;20.378;2023-08-24T00:21:06;26.93;;;18.43;;
69392;SDS011;56582;44.624;20.378;2023-08-24T00:23:32;26.15;;;19.30;;
69392;SDS011;56582;44.624;20.378;2023-08-24T00:25:58;23.17;;;19.15;;
69392;SDS011;56582;44.624;20.378;2023-08-24T00:28:25;25.45;;;19.40;;
69392;SDS011;56582;44.624;20.378;2023-08-24T00:30:51;24.60;;;19.47;;
69392;SDS011;56582;44.624;20.378;2023-08-24T00:33:16;25.30;;;19.58;;
69392;SDS011;56582;44.624;20.378;2023-08-24T00:35:42;28.73;;;21.57;;
69392;SDS011;56582;44.624;20.378;2023-08-24T00:38:07;28.53;;;19.80;;
69392;SDS011;56582;44.624;20.378;2023-08-24T00:40:33;27.25;;;20.80;;
69392;SDS011;56582;44.624;20.378;2023-08-24T00:42:59;28.23;;;19.98;;
69392;SDS011;56582;44.624;20.378;2023-08-24T00:45:25;23.80;;;19.90;;
69392;SDS011;56582;44.624;20.378;2023-08-24T00:47:50;29.80;;;21.20;;
69392;SDS011;56582;44.624;20.378;2023-08-24T00:50:17;27.48;;;20.85;;
69392;SDS011;56582;44.624;20.378;2023-08-24T00:52:43;28.38;;;20.45;;
69392;SDS011;56582;44.624;20.378;2023-08-24T00:55:09;27.50;;;19.50;;
69392;SDS011;56582;44.624;20.378;2023-08-24T00:57:37;28.83;;;21.47;;
69392;SDS011;56582;44.624;20.378;2023-08-24T01:00:06;30.08;;;22.33;;
69392;SDS011;56582;44.624;20.378;2023-08-24T01:02:35;28.65;;;21.42;;
69392;SDS011;56582;44.624;20.378;2023-08-24T01:05:00;28.70;;;21.33;;
69392;SDS011;56582;44.624;20.378;2023-08-24T01:07:26;29.10;;;20.60;;
69392;SDS011;56582;44.624;20.378;2023-08-24T01:09:51;26.87;;;20.70;;
69392;SDS011;56582;44.624;20.378;2023-08-24T01:17:28;25.92;;;18.48;;
69392;SDS011;56582;44.624;20.378;2023-08-24T01:19:55;24.05;;;19.77;;
69392;SDS011;56582;44.624;20.378;2023-08-24T01:25:06;27.17;;;20.95;;
69392;SDS011;56582;44.624;20.378;2023-08-24T01:27:35;29.23;;;21.90;;
69392;SDS011;56582;44.624;20.378;2023-08-24T01:30:02;30.67;;;22.67;;
69392;SDS011;56582;44.624;20.378;2023-08-24T01:32:32;31.50;;;20.98;;
69392;SDS011;56582;44.624;20.378;2023-08-24T01:34:59;31.20;;;20.57;;
69392;SDS011;56582;44.624;20.378;2023-08-24T01:37:26;26.95;;;21.15;;
69392;SDS011;56582;44.624;20.378;2023-08-24T01:40:00;28.63;;;20.70;;
69392;SDS011;56582;44.624;20.378;2023-08-24T01:45:17;26.92;;;20.63;;
69392;SDS011;56582;44.624;20.378;2023-08-24T01:47:44;27.63;;;18.83;;
69392;SDS011;56582;44.624;20.378;2023-08-24T01:50:12;31.70;;;21.05;;
69392;SDS011;56582;44.624;20.378;2023-08-24T01:52:38;33.47;;;21.80;;
69392;SDS011;56582;44.624;20.378;2023-08-24T01:55:05;28.77;;;21.27;;
69392;SDS011;56582;44.624;20.378;2023-08-24T01:57:30;25.93;;;19.93;;
69392;SDS011;56582;44.624;20.378;2023-08-24T01:59:56;30.57;;;21.30;;
69392;SDS011;56582;44.624;20.378;2023-08-24T02:02:21;29.47;;;22.30;;
69392;SDS011;56582;44.624;20.378;2023-08-24T02:04:48;33.88;;;24.77;;
69392;SDS011;56582;44.624;20.378;2023-08-24T02:07:13;33.47;;;24.53;;
69392;SDS011;56582;44.624;20.378;2023-08-24T02:09:39;33.42;;;23.10;;
69392;SDS011;56582;44.624;20.378;2023-08-24T02:12:04;29.10;;;23.00;;
69392;SDS011;56582;44.624;20.378;2023-08-24T02:14:30;30.47;;;22.97;;
69392;SDS011;56582;44.624;20.378;2023-08-24T02:16:55;31.88;;;23.08;;
69392;SDS011;56582;44.624;20.378;2023-08-24T02:19:21;31.40;;;24.07;;
69392;SDS011;56582;44.624;20.378;2023-08-24T02:21:46;29.43;;;22.97;;
69392;SDS011;56582;44.624;20.378;2023-08-24T02:24:12;28.57;;;22.43;;
69392;SDS011;56582;44.624;20.378;2023-08-24T02:26:37;32.40;;;23.70;;
69392;SDS011;56582;44.624;20.378;2023-08-24T02:29:03;31.47;;;23.43;;
69392;SDS011;56582;44.624;20.378;2023-08-24T02:31:28;31.07;;;23.57;;
69392;SDS011;56582;44.624;20.378;2023-08-24T02:33:54;33.20;;;22.83;;
69392;SDS011;56582;44.624;20.378;2023-08-24T02:36:19;31.83;;;24.13;;
69392;SDS011;56582;44.624;20.378;2023-08-24T02:38:45;30.47;;;21.67;;
69392;SDS011;56582;44.624;20.378;2023-08-24T02:41:11;32.85;;;24.90;;
69392;SDS011;56582;44.624;20.378;2023-08-24T02:43:39;35.45;;;24.42;;
69392;SDS011;56582;44.624;20.378;2023-08-24T02:46:06;33.70;;;22.80;;
69392;SDS011;56582;44.624;20.378;2023-08-24T02:48:33;31.83;;;24.08;;
69392;SDS011;56582;44.624;20.378;2023-08-24T02:51:00;36.65;;;24.40;;
69392;SDS011;56582;44.624;20.378;2023-08-24T02:53:28;32.85;;;25.25;;
69392;SDS011;56582;44.624;20.378;2023-08-24T02:55:57;33.23;;;23.40;;
69392;SDS011;56582;44.624;20.378;2023-08-24T02:58:22;32.20;;;24.23;;
69392;SDS011;56582;44.624;20.378;2023-08-24T03:00:48;35.70;;;24.27;;
69392;SDS011;56582;44.624;20.378;2023-08-24T03:03:14;35.63;;;26.13;;
69392;SDS011;56582;44.624;20.378;2023-08-24T03:05:40;36.35;;;25.13;;
69392;SDS011;56582;44.624;20.378;2023-08-24T03:08:06;35.33;;;25.20;;
69392;SDS011;56582;44.624;20.378;2023-08-24T03:10:34;36.30;;;26.03;;
69392;SDS011;56582;44.624;20.378;2023-08-24T03:13:00;41.83;;;26.55;;
69392;SDS011;56582;44.624;20.378;2023-08-24T03:15:25;35.27;;;25.47;;
69392;SDS011;56582;44.624;20.378;2023-08-24T03:17:51;35.47;;;25.47;;
69392;SDS011;56582;44.624;20.378;2023-08-24T03:20:17;32.63;;;24.80;;
69392;SDS011;56582;44.624;20.378;2023-08-24T03:22:43;35.22;;;25.45;;
69392;SDS011;56582;44.624;20.378;2023-08-24T03:25:09;33.73;;;25.53;;
69392;SDS011;56582;44.624;20.378;2023-08-24T03:27:34;36.40;;;26.10;;
69392;SDS011;56582;44.624;20.378;2023-08-24T03:30:00;33.23;;;25.40;;
69392;SDS011;56582;44.624;20.378;2023-08-24T03:32:26;35.93;;;25.87;;
69392;SDS011;56582;44.624;20.378;2023-08-24T03:55:02;38.80;;;27.17;;
69392;SDS011;56582;44.624;20.378;2023-08-24T03:57:48;41.05;;;26.75;;
69392;SDS011;56582;44.624;20.378;2023-08-24T04:00:14;38.10;;;28.05;;
69392;SDS011;56582;44.624;20.378;2023-08-24T04:02:42;38.63;;;28.10;;
69392;SDS011;56582;44.624;20.378;2023-08-24T04:05:08;41.55;;;27.60;;
69392;SDS011;56582;44.624;20.378;2023-08-24T04:10:40;39.50;;;29.60;;
69392;SDS011;56582;44.624;20.378;2023-08-24T04:13:05;39.00;;;28.97;;
69392;SDS011;56582;44.624;20.378;2023-08-24T04:15:31;43.73;;;29.77;;
69392;SDS011;56582;44.624;20.378;2023-08-24T04:17:56;40.78;;;29.73;;
69392;SDS011;56582;44.624;20.378;2023-08-24T04:20:22;40.00;;;29.87;;
69392;SDS011;56582;44.624;20.378;2023-08-24T04:22:47;43.40;;;31.60;;
69392;SDS011;56582;44.624;20.378;2023-08-24T04:25:13;42.55;;;31.73;;
69392;SDS011;56582;44.624;20.378;2023-08-24T04:27:38;41.50;;;28.77;;
69392;SDS011;56582;44.624;20.378;2023-08-24T04:30:04;36.30;;;27.40;;
69392;SDS011;56582;44.624;20.378;2023-08-24T04:32:31;42.03;;;30.10;;
69392;SDS011;56582;44.624;20.378;2023-08-24T04:34:57;38.50;;;27.08;;
69392;SDS011;56582;44.624;20.378;2023-08-24T04:37:23;41.60;;;30.90;;
69392;SDS011;56582;44.624;20.378;2023-08-24T04:39:48;41.03;;;31.17;;
69392;SDS011;56582;44.624;20.378;2023-08-24T04:42:14;43.33;;;30.10;;
69392;SDS011;56582;44.624;20.378;2023-08-24T04:44:40;45.03;;;33.07;;
69392;SDS011;56582;44.624;20.378;2023-08-24T04:47:06;44.88;;;31.75;;
69392;SDS011;56582;44.624;20.378;2023-08-24T04:49:32;43.23;;;28.77;;
69392;SDS011;56582;44.624;20.378;2023-08-24T04:51:57;39.13;;;27.90;;
69392;SDS011;56582;44.624;20.378;2023-08-24T04:54:22;38.55;;;27.67;;
69392;SDS011;56582;44.624;20.378;2023-08-24T04:56:48;45.10;;;30.93;;
69392;SDS011;56582;44.624;20.378;2023-08-24T04:59:13;46.63;;;32.27;;
69392;SDS011;56582;44.624;20.378;2023-08-24T05:01:39;46.43;;;32.70;;
69392;SDS011;56582;44.624;20.378;2023-08-24T05:04:04;45.07;;;32.80;;
69392;SDS011;56582;44.624;20.378;2023-08-24T05:06:30;42.10;;;30.77;;
69392;SDS011;56582;44.624;20.378;2023-08-24T05:08:55;44.08;;;30.98;;
69392;SDS011;56582;44.624;20.378;2023-08-24T05:11:25;42.80;;;31.30;;
69392;SDS011;56582;44.624;20.378;2023-08-24T05:13:54;45.72;;;31.25;;
69392;SDS011;56582;44.624;20.378;2023-08-24T05:16:19;40.10;;;29.77;;
69392;SDS011;56582;44.624;20.378;2023-08-24T05:18:45;41.70;;;30.53;;
69392;SDS011;56582;44.624;20.378;2023-08-24T05:21:11;44.57;;;32.63;;
69392;SDS011;56582;44.624;20.378;2023-08-24T05:23:36;45.70;;;31.85;;
69392;SDS011;56582;44.624;20.378;2023-08-24T05:26:03;42.58;;;30.27;;
69392;SDS011;56582;44.624;20.378;2023-08-24T05:28:29;44.67;;;31.30;;
69392;SDS011;56582;44.624;20.378;2023-08-24T05:30:56;38.10;;;29.48;;
69392;SDS011;56582;44.624;20.378;2023-08-24T05:33:22;39.77;;;29.30;;
69392;SDS011;56582;44.624;20.378;2023-08-24T05:35:48;45.53;;;30.27;;
69392;SDS011;56582;44.624;20.378;2023-08-24T05:38:15;39.08;;;29.85;;
69392;SDS011;56582;44.624;20.378;2023-08-24T05:40:47;42.50;;;29.35;;
69392;SDS011;56582;44.624;20.378;2023-08-24T05:43:13;38.80;;;29.23;;
69392;SDS011;56582;44.624;20.378;2023-08-24T05:45:39;35.97;;;29.07;;
69392;SDS011;56582;44.624;20.378;2023-08-24T05:48:06;35.58;;;26.67;;
69392;SDS011;56582;44.624;20.378;2023-08-24T05:50:35;36.53;;;27.40;;
69392;SDS011;56582;44.624;20.378;2023-08-24T05:53:02;40.08;;;29.35;;
69392;SDS011;56582;44.624;20.378;2023-08-24T05:55:28;38.90;;;29.08;;
69392;SDS011;56582;44.624;20.378;2023-08-24T05:57:54;39.73;;;29.40;;
69392;SDS011;56582;44.624;20.378;2023-08-24T06:00:19;36.30;;;28.10;;
69392;SDS011;56582;44.624;20.378;2023-08-24T06:02:47;36.13;;;26.73;;
69392;SDS011;56582;44.624;20.378;2023-08-24T06:05:12;35.07;;;28.17;;
69392;SDS011;56582;44.624;20.378;2023-08-24T06:07:38;36.13;;;27.63;;
69392;SDS011;56582;44.624;20.378;2023-08-24T06:10:03;32.90;;;25.45;;
69392;SDS011;56582;44.624;20.378;2023-08-24T06:12:29;34.70;;;26.90;;
69392;SDS011;56582;44.624;20.378;2023-08-24T06:14:55;33.37;;;24.97;;
69392;SDS011;56582;44.624;20.378;2023-08-24T06:17:20;38.73;;;27.80;;
69392;SDS011;56582;44.624;20.378;2023-08-24T06:19:46;34.88;;;26.10;;
69392;SDS011;56582;44.624;20.378;2023-08-24T06:22:14;34.47;;;26.60;;
69392;SDS011;56582;44.624;20.378;2023-08-24T06:24:39;36.60;;;25.88;;
69392;SDS011;56582;44.624;20.378;2023-08-24T06:27:05;34.77;;;25.13;;
69392;SDS011;56582;44.624;20.378;2023-08-24T06:29:30;35.00;;;24.47;;
69392;SDS011;56582;44.624;20.378;2023-08-24T06:31:56;35.63;;;26.20;;
69392;SDS011;56582;44.624;20.378;2023-08-24T06:34:22;32.83;;;26.30;;
69392;SDS011;56582;44.624;20.378;2023-08-24T06:36:47;30.67;;;26.10;;
69392;SDS011;56582;44.624;20.378;2023-08-24T06:39:13;30.73;;;24.03;;
69392;SDS011;56582;44.624;20.378;2023-08-24T06:41:38;31.00;;;24.03;;
69392;SDS011;56582;44.624;20.378;2023-08-24T06:44:04;29.50;;;23.30;;
69392;SDS011;56582;44.624;20.378;2023-08-24T06:46:30;29.60;;;23.03;;
69392;SDS011;56582;44.624;20.378;2023-08-24T06:48:56;29.48;;;23.00;;
69392;SDS011;56582;44.624;20.378;2023-08-24T06:51:22;32.50;;;23.63;;
69392;SDS011;56582;44.624;20.378;2023-08-24T06:53:47;29.35;;;22.85;;
69392;SDS011;56582;44.624;20.378;2023-08-24T06:56:13;31.90;;;24.65;;
69392;SDS011;56582;44.624;20.378;2023-08-24T06:58:47;35.57;;;23.00;;
69392;SDS011;56582;44.624;20.378;2023-08-24T07:01:13;32.60;;;23.05;;
69392;SDS011;56582;44.624;20.378;2023-08-24T07:03:38;26.98;;;23.25;;
69392;SDS011;56582;44.624;20.378;2023-08-24T07:06:07;28.00;;;20.70;;
69392;SDS011;56582;44.624;20.378;2023-08-24T07:08:32;25.73;;;20.60;;
69392;SDS011;56582;44.624;20.378;2023-08-24T07:10:58;24.65;;;18.67;;
69392;SDS011;56582;44.624;20.378;2023-08-24T07:13:24;23.77;;;18.27;;
69392;SDS011;56582;44.624;20.378;2023-08-24T07:15:49;22.33;;;18.00;;
69392;SDS011;56582;44.624;20.378;2023-08-24T07:18:16;24.25;;;18.90;;
69392;SDS011;56582;44.624;20.378;2023-08-24T07:20:42;26.10;;;19.45;;
69392;SDS011;56582;44.624;20.378;2023-08-24T07:23:07;27.80;;;18.53;;
69392;SDS011;56582;44.624;20.378;2023-08-24T07:25:33;22.70;;;18.90;;
69392;SDS011;56582;44.624;20.378;2023-08-24T07:28:00;24.17;;;18.70;;
69392;SDS011;56582;44.624;20.378;2023-08-24T07:30:27;27.15;;;19.25;;
69392;SDS011;56582;44.624;20.378;2023-08-24T07:32:53;29.60;;;19.73;;
69392;SDS011;56582;44.624;20.378;2023-08-24T07:35:19;25.63;;;19.63;;
69392;SDS011;56582;44.624;20.378;2023-08-24T07:37:46;24.48;;;19.48;;
69392;SDS011;56582;44.624;20.378;2023-08-24T07:40:13;25.05;;;19.02;;
69392;SDS011;56582;44.624;20.378;2023-08-24T07:45:16;24.25;;;18.63;;
69392;SDS011;56582;44.624;20.378;2023-08-24T07:47:42;25.48;;;18.52;;
69392;SDS011;56582;44.624;20.378;2023-08-24T07:50:08;23.98;;;17.65;;
69392;SDS011;56582;44.624;20.378;2023-08-24T07:52:35;23.75;;;17.80;;
69392;SDS011;56582;44.624;20.378;2023-08-24T07:55:02;25.53;;;19.00;;
69392;SDS011;56582;44.624;20.378;2023-08-24T07:57:29;22.90;;;17.55;;
69392;SDS011;56582;44.624;20.378;2023-08-24T07:59:54;21.85;;;17.77;;
69392;SDS011;56582;44.624;20.378;2023-08-24T08:02:20;20.43;;;16.27;;
69392;SDS011;56582;44.624;20.378;2023-08-24T08:04:45;21.77;;;15.83;;
69392;SDS011;56582;44.624;20.378;2023-08-24T08:07:11;24.48;;;16.73;;
69392;SDS011;56582;44.624;20.378;2023-08-24T08:09:37;21.27;;;16.17;;
69392;SDS011;56582;44.624;20.378;2023-08-24T08:12:03;22.35;;;16.25;;
69392;SDS011;56582;44.624;20.378;2023-08-24T08:14:29;21.38;;;16.33;;
69392;SDS011;56582;44.624;20.378;2023-08-24T08:16:58;21.10;;;16.83;;
69392;SDS011;56582;44.624;20.378;2023-08-24T08:19:24;21.17;;;16.08;;
69392;SDS011;56582;44.624;20.378;2023-08-24T08:21:51;22.58;;;16.27;;
69392;SDS011;56582;44.624;20.378;2023-08-24T08:24:17;17.83;;;14.20;;
69392;SDS011;56582;44.624;20.378;2023-08-24T08:26:42;20.20;;;14.57;;
69392;SDS011;56582;44.624;20.378;2023-08-24T08:29:08;19.70;;;13.85;;
69392;SDS011;56582;44.624;20.378;2023-08-24T08:31:33;20.07;;;13.47;;
69392;SDS011;56582;44.624;20.378;2023-08-24T08:33:59;17.97;;;13.70;;
69392;SDS011;56582;44.624;20.378;2023-08-24T08:36:24;18.02;;;14.55;;
69392;SDS011;56582;44.624;20.378;2023-08-24T08:38:50;18.83;;;14.00;;
69392;SDS011;56582;44.624;20.378;2023-08-24T08:41:15;18.33;;;14.37;;
69392;SDS011;56582;44.624;20.378;2023-08-24T08:43:46;18.80;;;15.20;;
69392;SDS011;56582;44.624;20.378;2023-08-24T08:46:12;22.53;;;15.63;;
69392;SDS011;56582;44.624;20.378;2023-08-24T08:48:40;22.55;;;15.63;;
69392;SDS011;56582;44.624;20.378;2023-08-24T08:51:06;19.05;;;14.73;;
69392;SDS011;56582;44.624;20.378;2023-08-24T08:53:32;19.17;;;14.60;;
69392;SDS011;56582;44.624;20.378;2023-08-24T08:55:57;20.00;;;13.60;;
69392;SDS011;56582;44.624;20.378;2023-08-24T08:58:28;21.50;;;14.82;;
69392;SDS011;56582;44.624;20.378;2023-08-24T09:00:54;19.30;;;14.77;;
69392;SDS011;56582;44.624;20.378;2023-08-24T09:03:20;17.30;;;14.27;;
69392;SDS011;56582;44.624;20.378;2023-08-24T09:05:46;18.30;;;14.18;;
69392;SDS011;56582;44.624;20.378;2023-08-24T09:08:13;23.67;;;14.68;;
69392;SDS011;56582;44.624;20.378;2023-08-24T09:10:41;22.97;;;14.17;;
69392;SDS011;56582;44.624;20.378;2023-08-24T09:13:07;18.13;;;14.20;;
69392;SDS011;56582;44.624;20.378;2023-08-24T09:15:34;20.70;;;13.77;;
69392;SDS011;56582;44.624;20.378;2023-08-24T09:18:01;21.38;;;13.27;;
69392;SDS011;56582;44.624;20.378;2023-08-24T09:20:27;16.75;;;12.38;;
69392;SDS011;56582;44.624;20.378;2023-08-24T09:22:54;19.00;;;12.60;;
69392;SDS011;56582;44.624;20.378;2023-08-24T09:25:22;15.15;;;12.43;;
69392;SDS011;56582;44.624;20.378;2023-08-24T09:28:00;17.98;;;12.90;;
69392;SDS011;56582;44.624;20.378;2023-08-24T09:30:44;17.15;;;12.82;;
69392;SDS011;56582;44.624;20.378;2023-08-24T09:33:10;14.77;;;11.90;;
69392;SDS011;56582;44.624;20.378;2023-08-24T09:35:36;16.30;;;13.50;;
69392;SDS011;56582;44.624;20.378;2023-08-24T09:40:48;14.45;;;11.60;;
69392;SDS011;56582;44.624;20.378;2023-08-24T09:43:19;16.13;;;12.45;;
69392;SDS011;56582;44.624;20.378;2023-08-24T09:45:55;14.93;;;11.07;;
69392;SDS011;56582;44.624;20.378;2023-08-24T09:48:22;17.15;;;12.30;;
69392;SDS011;56582;44.624;20.378;2023-08-24T09:50:49;17.88;;;11.70;;
69392;SDS011;56582;44.624;20.378;2023-08-24T09:53:19;16.65;;;11.75;;
69392;SDS011;56582;44.624;20.378;2023-08-24T09:55:53;17.63;;;11.77;;
69392;SDS011;56582;44.624;20.378;2023-08-24T09:58:25;14.83;;;11.70;;
69392;SDS011;56582;44.624;20.378;2023-08-24T10:00:51;18.42;;;12.18;;
69392;SDS011;56582;44.624;20.378;2023-08-24T10:03:35;15.93;;;11.13;;
69392;SDS011;56582;44.624;20.378;2023-08-24T10:06:05;13.57;;;11.45;;
69392;SDS011;56582;44.624;20.378;2023-08-24T10:08:43;15.27;;;11.60;;
69392;SDS011;56582;44.624;20.378;2023-08-24T10:11:12;14.10;;;11.50;;
69392;SDS011;56582;44.624;20.378;2023-08-24T10:16:37;15.48;;;11.32;;
69392;SDS011;56582;44.624;20.378;2023-08-24T10:19:04;14.05;;;12.25;;
69392;SDS011;56582;44.624;20.378;2023-08-24T10:21:30;16.48;;;11.20;;
69392;SDS011;56582;44.624;20.378;2023-08-24T10:23:56;17.27;;;11.50;;
69392;SDS011;56582;44.624;20.378;2023-08-24T10:26:23;13.93;;;11.02;;
69392;SDS011;56582;44.624;20.378;2023-08-24T10:28:52;14.40;;;11.43;;
69392;SDS011;56582;44.624;20.378;2023-08-24T10:31:18;14.00;;;11.95;;
69392;SDS011;56582;44.624;20.378;2023-08-24T10:33:45;14.83;;;11.43;;
69392;SDS011;56582;44.624;20.378;2023-08-24T10:36:12;14.65;;;11.35;;
69392;SDS011;56582;44.624;20.378;2023-08-24T10:38:42;15.77;;;11.70;;
69392;SDS011;56582;44.624;20.378;2023-08-24T10:41:08;13.50;;;11.27;;
69392;SDS011;56582;44.624;20.378;2023-08-24T10:43:37;13.52;;;11.13;;
69392;SDS011;56582;44.624;20.378;2023-08-24T10:46:03;14.20;;;11.07;;
69392;SDS011;56582;44.624;20.378;2023-08-24T10:53:39;12.63;;;11.00;;
69392;SDS011;56582;44.624;20.378;2023-08-24T10:56:12;14.38;;;10.27;;
69392;SDS011;56582;44.624;20.378;2023-08-24T10:58:37;11.80;;;9.73;;
69392;SDS011;56582;44.624;20.378;2023-08-24T11:01:03;13.13;;;10.40;;
69392;SDS011;56582;44.624;20.378;2023-08-24T11:03:32;15.13;;;10.20;;
69392;SDS011;56582;44.624;20.378;2023-08-24T11:05:58;13.95;;;10.27;;
69392;SDS011;56582;44.624;20.378;2023-08-24T11:11:19;13.20;;;9.40;;
69392;SDS011;56582;44.624;20.378;2023-08-24T11:17:01;13.05;;;9.10;;
69392;SDS011;56582;44.624;20.378;2023-08-24T11:19:48;11.10;;;7.68;;
69392;SDS011;56582;44.624;20.378;2023-08-24T11:22:16;13.00;;;8.27;;
69392;SDS011;56582;44.624;20.378;2023-08-24T11:24:42;9.47;;;7.43;;
69392;SDS011;56582;44.624;20.378;2023-08-24T11:27:08;11.45;;;7.85;;
69392;SDS011;56582;44.624;20.378;2023-08-24T11:29:34;11.82;;;7.68;;
69392;SDS011;56582;44.624;20.378;2023-08-24T11:31:59;10.63;;;7.27;;
69392;SDS011;56582;44.624;20.378;2023-08-24T11:34:25;8.93;;;6.73;;
69392;SDS011;56582;44.624;20.378;2023-08-24T11:36:53;10.43;;;6.85;;
69392;SDS011;56582;44.624;20.378;2023-08-24T11:39:19;10.30;;;6.83;;
69392;SDS011;56582;44.624;20.378;2023-08-24T11:42:00;7.70;;;6.53;;
69392;SDS011;56582;44.624;20.378;2023-08-24T11:44:27;8.73;;;7.00;;
69392;SDS011;56582;44.624;20.378;2023-08-24T11:46:55;8.87;;;7.17;;
69392;SDS011;56582;44.624;20.378;2023-08-24T11:49:22;9.27;;;6.63;;
69392;SDS011;56582;44.624;20.378;2023-08-24T11:51:48;10.07;;;6.50;;
69392;SDS011;56582;44.624;20.378;2023-08-24T11:54:16;10.30;;;6.00;;
69392;SDS011;56582;44.624;20.378;2023-08-24T11:56:43;9.50;;;6.97;;
69392;SDS011;56582;44.624;20.378;2023-08-24T11:59:12;11.23;;;7.93;;
69392;SDS011;56582;44.624;20.378;2023-08-24T12:01:39;10.43;;;7.07;;
69392;SDS011;56582;44.624;20.378;2023-08-24T12:04:06;14.40;;;7.05;;
69392;SDS011;56582;44.624;20.378;2023-08-24T12:06:31;11.95;;;7.35;;
69392;SDS011;56582;44.624;20.378;2023-08-24T12:08:57;10.47;;;6.97;;
69392;SDS011;56582;44.624;20.378;2023-08-24T12:11:22;10.60;;;6.53;;
69392;SDS011;56582;44.624;20.378;2023-08-24T12:13:52;10.55;;;6.47;;
69392;SDS011;56582;44.624;20.378;2023-08-24T12:16:22;10.43;;;6.97;;
69392;SDS011;56582;44.624;20.378;2023-08-24T12:18:51;11.03;;;7.10;;
69392;SDS011;56582;44.624;20.378;2023-08-24T12:21:18;10.13;;;6.60;;
69392;SDS011;56582;44.624;20.378;2023-08-24T12:23:44;11.93;;;6.60;;
69392;SDS011;56582;44.624;20.378;2023-08-24T12:26:19;11.65;;;7.10;;
69392;SDS011;56582;44.624;20.378;2023-08-24T12:28:48;11.30;;;6.20;;
69392;SDS011;56582;44.624;20.378;2023-08-24T12:31:15;10.63;;;6.40;;
69392;SDS011;56582;44.624;20.378;2023-08-24T12:33:42;11.65;;;6.53;;
69392;SDS011;56582;44.624;20.378;2023-08-24T12:36:08;10.45;;;7.03;;
69392;SDS011;56582;44.624;20.378;2023-08-24T12:38:33;10.30;;;6.80;;
69392;SDS011;56582;44.624;20.378;2023-08-24T12:41:00;9.50;;;6.25;;
69392;SDS011;56582;44.624;20.378;2023-08-24T12:43:26;7.97;;;5.97;;
69392;SDS011;56582;44.624;20.378;2023-08-24T12:45:51;8.70;;;5.30;;
69392;SDS011;56582;44.624;20.378;2023-08-24T12:48:17;9.55;;;5.78;;
69392;SDS011;56582;44.624;20.378;2023-08-24T12:50:42;7.60;;;5.27;;
69392;SDS011;56582;44.624;20.378;2023-08-24T12:53:08;8.40;;;5.57;;
69392;SDS011;56582;44.624;20.378;2023-08-24T12:55:35;10.77;;;6.27;;
69392;SDS011;56582;44.624;20.378;2023-08-24T12:58:03;9.65;;;6.50;;
69392;SDS011;56582;44.624;20.378;2023-08-24T13:00:29;9.52;;;6.93;;
69392;SDS011;56582;44.624;20.378;2023-08-24T13:02:54;10.27;;;7.17;;
69392;SDS011;56582;44.624;20.378;2023-08-24T13:05:20;9.25;;;6.95;;
69392;SDS011;56582;44.624;20.378;2023-08-24T13:07:46;9.10;;;6.80;;
69392;SDS011;56582;44.624;20.378;2023-08-24T13:10:11;8.80;;;6.40;;
69392;SDS011;56582;44.624;20.378;2023-08-24T13:12:37;8.70;;;6.67;;
69392;SDS011;56582;44.624;20.378;2023-08-24T13:15:03;10.02;;;6.85;;
69392;SDS011;56582;44.624;20.378;2023-08-24T13:17:33;8.50;;;6.72;;
69392;SDS011;56582;44.624;20.378;2023-08-24T13:19:58;11.47;;;6.67;;
69392;SDS011;56582;44.624;20.378;2023-08-24T13:22:23;10.43;;;6.93;;
69392;SDS011;56582;44.624;20.378;2023-08-24T13:24:51;10.83;;;6.30;;
69392;SDS011;56582;44.624;20.378;2023-08-24T13:27:18;9.27;;;6.35;;
69392;SDS011;56582;44.624;20.378;2023-08-24T13:29:44;9.32;;;6.90;;
69392;SDS011;56582;44.624;20.378;2023-08-24T13:32:09;10.67;;;6.70;;
69392;SDS011;56582;44.624;20.378;2023-08-24T13:34:35;11.67;;;6.97;;
69392;SDS011;56582;44.624;20.378;2023-08-24T13:37:02;9.52;;;6.40;;
69392;SDS011;56582;44.624;20.378;2023-08-24T13:39:29;10.02;;;6.82;;
69392;SDS011;56582;44.624;20.378;2023-08-24T13:41:55;9.60;;;6.57;;
69392;SDS011;56582;44.624;20.378;2023-08-24T13:44:21;9.88;;;6.80;;
69392;SDS011;56582;44.624;20.378;2023-08-24T13:46:47;8.53;;;5.47;;
69392;SDS011;56582;44.624;20.378;2023-08-24T13:49:12;8.23;;;5.80;;
69392;SDS011;56582;44.624;20.378;2023-08-24T13:51:37;9.13;;;5.70;;
69392;SDS011;56582;44.624;20.378;2023-08-24T13:54:11;8.03;;;6.00;;
69392;SDS011;56582;44.624;20.378;2023-08-24T13:56:39;7.97;;;6.20;;
69392;SDS011;56582;44.624;20.378;2023-08-24T13:59:04;7.23;;;5.60;;
69392;SDS011;56582;44.624;20.378;2023-08-24T14:01:30;7.63;;;6.05;;
69392;SDS011;56582;44.624;20.378;2023-08-24T14:03:56;9.30;;;5.83;;
69392;SDS011;56582;44.624;20.378;2023-08-24T14:06:22;8.38;;;5.32;;
69392;SDS011;56582;44.624;20.378;2023-08-24T14:08:47;9.17;;;5.70;;
69392;SDS011;56582;44.624;20.378;2023-08-24T14:11:13;7.85;;;5.55;;
69392;SDS011;56582;44.624;20.378;2023-08-24T14:13:40;8.40;;;5.63;;
69392;SDS011;56582;44.624;20.378;2023-08-24T14:16:06;6.85;;;5.50;;
69392;SDS011;56582;44.624;20.378;2023-08-24T14:18:32;9.60;;;5.97;;
69392;SDS011;56582;44.624;20.378;2023-08-24T14:20:57;9.20;;;6.35;;
69392;SDS011;56582;44.624;20.378;2023-08-24T14:23:23;11.03;;;6.03;;
69392;SDS011;56582;44.624;20.378;2023-08-24T14:25:48;9.10;;;6.50;;
69392;SDS011;56582;44.624;20.378;2023-08-24T14:28:18;9.57;;;5.93;;
69392;SDS011;56582;44.624;20.378;2023-08-24T14:30:44;8.10;;;5.10;;
69392;SDS011;56582;44.624;20.378;2023-08-24T14:33:10;8.00;;;5.17;;
69392;SDS011;56582;44.624;20.378;2023-08-24T14:35:35;8.47;;;5.77;;
69392;SDS011;56582;44.624;20.378;2023-08-24T14:38:01;11.93;;;6.17;;
69392;SDS011;56582;44.624;20.378;2023-08-24T14:40:26;9.82;;;6.57;;
69392;SDS011;56582;44.624;20.378;2023-08-24T14:42:52;9.57;;;6.07;;
69392;SDS011;56582;44.624;20.378;2023-08-24T14:45:19;8.70;;;6.20;;
69392;SDS011;56582;44.624;20.378;2023-08-24T14:47:45;8.93;;;6.97;;
69392;SDS011;56582;44.624;20.378;2023-08-24T14:50:11;9.50;;;5.88;;
69392;SDS011;56582;44.624;20.378;2023-08-24T14:52:37;8.18;;;5.75;;
69392;SDS011;56582;44.624;20.378;2023-08-24T14:55:03;9.40;;;6.00;;
69392;SDS011;56582;44.624;20.378;2023-08-24T14:57:29;7.70;;;5.40;;
69392;SDS011;56582;44.624;20.378;2023-08-24T14:59:54;8.70;;;5.57;;
69392;SDS011;56582;44.624;20.378;2023-08-24T15:02:20;10.23;;;6.00;;
69392;SDS011;56582;44.624;20.378;2023-08-24T15:04:45;12.27;;;6.20;;